createdAt,value
2019-05-02T00:01:33.814Z,10.12
2019-05-02T00:05:38.770Z,10.18
2019-05-02T00:09:48.373Z,10.22
2019-05-02T00:13:50.872Z,10.17
2019-05-02T00:17:56.769Z,10.13
2019-05-02T00:22:02.711Z,10.11
2019-05-02T00:26:07.606Z,10.04
2019-05-02T00:30:14.912Z,10.04
2019-05-02T00:34:19.812Z,10.05
2019-05-02T00:38:24.711Z,10.09
2019-05-02T00:42:29.602Z,10.04
2019-05-02T00:46:35.015Z,9.94
2019-05-02T00:50:45.450Z,9.81
2019-05-02T00:54:47.611Z,9.72
2019-05-02T00:58:52.498Z,9.67
2019-05-02T01:02:59.032Z,9.58
2019-05-02T01:07:04.424Z,9.51
2019-05-02T01:11:09.308Z,9.47
2019-05-02T01:15:14.701Z,9.45
2019-05-02T01:19:19.564Z,9.36
2019-05-02T01:23:27.549Z,9.25
2019-05-02T01:27:41.126Z,9.27
2019-05-02T01:32:01.890Z,9.44
2019-05-02T01:36:20.423Z,9.64
2019-05-02T01:40:25.311Z,9.78
2019-05-02T01:44:35.751Z,9.90
2019-05-02T01:48:40.241Z,9.98
2019-05-02T01:52:43.371Z,10.00
2019-05-02T01:56:48.260Z,10.00
2019-05-02T02:00:53.226Z,10.02
2019-05-02T02:04:58.141Z,10.03
2019-05-02T02:09:07.779Z,10.04
2019-05-02T02:13:11.384Z,10.03
2019-05-02T02:17:17.351Z,10.01
2019-05-02T02:21:25.835Z,9.97
2019-05-02T02:25:37.383Z,9.91
2019-05-02T02:29:44.114Z,9.90
2019-05-02T02:33:49.866Z,9.89
2019-05-02T02:37:55.710Z,9.88
2019-05-02T02:42:00.838Z,9.78
2019-05-02T02:46:19.259Z,9.69
2019-05-02T02:50:24.154Z,9.65
2019-05-02T02:54:29.042Z,9.67
2019-05-02T02:58:44.251Z,9.66
2019-05-02T03:02:47.544Z,9.59
2019-05-02T03:06:47.727Z,9.49
2019-05-02T03:10:52.962Z,9.46
2019-05-02T03:15:02.131Z,9.45
2019-05-02T03:19:07.180Z,9.35
2019-05-02T03:23:20.966Z,9.19
2019-05-02T03:27:18.803Z,9.02
2019-05-02T03:31:29.788Z,8.88
2019-05-02T03:35:42.633Z,8.75
2019-05-02T03:39:36.997Z,8.63
2019-05-02T03:43:41.885Z,8.52
2019-05-02T03:47:48.389Z,8.45
2019-05-02T03:51:56.132Z,8.42
2019-05-02T03:56:10.576Z,8.49
2019-05-02T04:00:13.695Z,8.53
2019-05-02T04:04:20.524Z,8.46
2019-05-02T04:08:22.786Z,8.44
2019-05-02T04:12:27.683Z,8.47
2019-05-02T04:16:32.647Z,8.48
2019-05-02T04:20:43.543Z,8.48
2019-05-02T04:24:47.667Z,8.51
2019-05-02T04:28:52.099Z,8.62
2019-05-02T04:32:57.945Z,8.68
2019-05-02T04:37:04.011Z,8.83
2019-05-02T04:41:09.517Z,8.99
2019-05-02T04:45:28.437Z,9.26
2019-05-02T04:49:29.721Z,9.38
2019-05-02T04:53:36.597Z,9.24
2019-05-02T04:57:36.945Z,9.31
2019-05-02T05:01:48.358Z,9.65
2019-05-02T05:05:48.228Z,10.30
2019-05-02T05:09:58.410Z,10.93
2019-05-02T05:14:00.397Z,11.11
2019-05-02T05:18:10.408Z,11.55
2019-05-02T05:22:12.185Z,11.83
2019-05-02T05:26:17.548Z,11.80
2019-05-02T05:30:22.421Z,12.00
2019-05-02T05:34:28.539Z,12.76
2019-05-02T05:38:36.016Z,13.73
2019-05-02T05:42:40.500Z,14.53
2019-05-02T05:46:48.915Z,14.95
2019-05-02T05:50:51.993Z,15.37
2019-05-02T05:54:57.922Z,15.71
2019-05-02T05:59:02.865Z,16.05
2019-05-02T06:03:14.067Z,16.70
2019-05-02T06:07:14.346Z,17.25
2019-05-02T06:11:19.967Z,16.67
2019-05-02T06:15:25.831Z,16.88
2019-05-02T06:19:30.734Z,17.33
2019-05-02T06:23:37.212Z,17.85
2019-05-02T06:27:42.224Z,17.76
2019-05-02T06:31:47.118Z,18.28
2019-05-02T06:35:58.331Z,17.81
2019-05-02T06:40:03.282Z,16.84
2019-05-02T06:44:05.290Z,14.56
2019-05-02T06:48:16.841Z,14.56
2019-05-02T06:52:16.851Z,14.37
2019-05-02T06:56:21.744Z,14.13
2019-05-02T07:00:35.671Z,14.24
2019-05-02T07:04:33.228Z,13.58
2019-05-02T07:08:38.137Z,13.13
2019-05-02T07:12:46.134Z,12.79
2019-05-02T07:17:00.147Z,12.70
2019-05-02T07:21:05.679Z,12.82
2019-05-02T07:25:10.914Z,12.90
2019-05-02T07:29:17.023Z,12.89
2019-05-02T07:33:22.412Z,12.87
2019-05-02T07:37:27.317Z,13.11
2019-05-02T07:41:33.182Z,13.21
2019-05-02T07:45:40.385Z,13.34
2019-05-02T07:49:45.637Z,13.42
2019-05-02T07:53:50.548Z,13.60
2019-05-02T07:57:55.457Z,14.30
2019-05-02T08:02:00.354Z,14.87
2019-05-02T08:06:05.321Z,14.76
2019-05-02T08:10:10.551Z,14.94
2019-05-02T08:14:15.443Z,14.77
2019-05-02T08:18:20.335Z,14.67
2019-05-02T08:22:25.236Z,14.42
2019-05-02T08:26:31.775Z,14.42
2019-05-02T08:30:40.407Z,14.37
2019-05-02T08:34:46.233Z,14.48
2019-05-02T08:38:53.521Z,14.50
2019-05-02T08:43:03.333Z,14.50
2019-05-02T08:47:17.843Z,14.41
2019-05-02T08:51:11.980Z,14.55
2019-05-02T08:55:16.898Z,14.52
2019-05-02T08:59:24.612Z,14.41
2019-05-02T09:03:28.381Z,14.41
2019-05-02T09:07:37.171Z,14.45
2019-05-02T09:11:41.497Z,14.47
2019-05-02T09:15:51.203Z,14.23
2019-05-02T09:20:00.410Z,14.40
2019-05-02T09:23:59.606Z,14.46
2019-05-02T09:28:06.868Z,14.64
2019-05-02T09:32:12.537Z,14.66
2019-05-02T09:36:17.533Z,14.83
2019-05-02T09:40:22.449Z,14.94
2019-05-02T09:44:27.344Z,14.81
2019-05-02T09:48:32.245Z,14.77
2019-05-02T09:52:39.728Z,14.85
2019-05-02T09:56:43.727Z,14.98
2019-05-02T10:00:52.337Z,15.22
2019-05-02T10:04:56.940Z,15.33
2019-05-02T10:09:02.793Z,15.53
2019-05-02T10:13:09.501Z,15.83
2019-05-02T10:17:14.390Z,15.99
2019-05-02T10:21:19.289Z,16.25
2019-05-02T10:25:25.250Z,16.37
2019-05-02T10:29:32.944Z,16.71
2019-05-02T10:33:38.003Z,16.89
2019-05-02T10:37:43.135Z,16.87
2019-05-02T10:41:48.053Z,17.01
2019-05-02T10:45:56.502Z,17.03
2019-05-02T10:50:02.834Z,17.07
2019-05-02T10:54:08.805Z,16.93
2019-05-02T10:58:13.693Z,16.89
2019-05-02T11:02:26.053Z,17.05
2019-05-02T11:06:32.419Z,17.33
2019-05-02T11:10:37.503Z,17.53
2019-05-02T11:14:46.686Z,17.80
2019-05-02T11:19:13.097Z,18.24
2019-05-02T11:23:18.114Z,18.44
2019-05-02T11:27:23.034Z,18.70
2019-05-02T11:31:27.931Z,18.71
2019-05-02T11:35:32.938Z,18.81
2019-05-02T11:39:44.740Z,18.57
2019-05-02T11:43:44.946Z,18.60
2019-05-02T11:47:54.350Z,18.72
2019-05-02T11:51:57.609Z,18.85
2019-05-02T11:56:07.246Z,18.86
2019-05-02T12:00:12.384Z,18.84
2019-05-02T12:04:18.562Z,18.88
2019-05-02T12:08:23.479Z,18.93
2019-05-02T12:12:32.413Z,18.96
2019-05-02T12:16:34.992Z,19.01
2019-05-02T12:20:42.325Z,19.09
2019-05-02T12:24:46.581Z,19.33
2019-05-02T12:28:52.636Z,19.66
2019-05-02T12:32:57.712Z,20.22
2019-05-02T12:37:02.614Z,20.48
2019-05-02T12:41:19.548Z,20.61
2019-05-02T12:45:14.660Z,20.45
2019-05-02T12:49:27.049Z,20.15
2019-05-02T12:53:27.682Z,19.92
2019-05-02T12:57:32.598Z,19.75
2019-05-02T13:01:37.565Z,19.42
2019-05-02T13:05:42.709Z,19.10
2019-05-02T13:09:47.652Z,19.16
2019-05-02T13:13:53.622Z,19.13
2019-05-02T13:17:58.531Z,19.05
2019-05-02T13:22:06.380Z,19.17
2019-05-02T13:26:19.756Z,19.21
2019-05-02T13:30:21.937Z,19.26
2019-05-02T13:34:37.492Z,19.63
2019-05-02T13:38:42.406Z,19.84
2019-05-02T13:42:48.454Z,19.94
2019-05-02T13:46:53.650Z,20.03
2019-05-02T13:50:58.848Z,20.10
2019-05-02T13:55:07.933Z,19.88
2019-05-02T13:59:13.977Z,19.59
2019-05-02T14:03:18.886Z,19.53
2019-05-02T14:07:23.783Z,19.67
2019-05-02T14:11:43.502Z,19.71
2019-05-02T14:15:48.605Z,19.51
2019-05-02T14:20:07.440Z,19.47
2019-05-02T14:24:01.681Z,19.63
2019-05-02T14:28:06.789Z,19.74
2019-05-02T14:32:22.885Z,19.63
2019-05-02T14:36:18.350Z,19.72
2019-05-02T14:40:24.961Z,19.85
2019-05-02T14:45:00.408Z,20.12
2019-05-02T14:48:45.063Z,20.36
2019-05-02T14:52:47.971Z,20.49
2019-05-02T14:56:57.456Z,20.55
2019-05-02T15:01:03.724Z,20.43
2019-05-02T15:05:08.757Z,20.53
2019-05-02T15:09:16.641Z,20.36
2019-05-02T15:13:20.322Z,20.32
2019-05-02T15:17:27.958Z,20.36
2019-05-02T15:21:47.169Z,20.26
2019-05-02T15:25:52.502Z,20.11
2019-05-02T15:30:05.132Z,19.99
2019-05-02T15:34:11.838Z,19.94
2019-05-02T15:38:24.223Z,19.88
2019-05-02T15:42:25.578Z,19.81
2019-05-02T15:46:31.761Z,19.75
2019-05-02T15:50:43.595Z,19.72
2019-05-02T15:54:43.152Z,19.80
2019-05-02T15:58:48.054Z,19.64
2019-05-02T16:02:56.296Z,19.54
2019-05-02T16:07:00.488Z,19.37
2019-05-02T16:11:08.778Z,19.22
2019-05-02T16:15:21.035Z,18.94
2019-05-02T16:19:27.107Z,18.82
2019-05-02T16:23:32.729Z,18.65
2019-05-02T16:27:48.856Z,18.53
2019-05-02T16:31:59.652Z,18.53
2019-05-02T16:36:02.723Z,18.46
2019-05-02T16:40:09.291Z,18.48
2019-05-02T16:44:14.171Z,18.57
2019-05-02T16:48:19.084Z,18.54
2019-05-02T16:52:23.979Z,18.39
2019-05-02T16:56:28.878Z,18.28
2019-05-02T17:00:36.934Z,18.13
2019-05-02T17:04:42.506Z,17.95
2019-05-02T17:08:57.369Z,17.83
2019-05-02T17:13:00.372Z,17.69
2019-05-02T17:17:05.041Z,17.62
2019-05-02T17:21:09.935Z,17.55
2019-05-02T17:25:14.827Z,17.51
2019-05-02T17:29:21.447Z,17.49
2019-05-02T17:33:26.311Z,17.48
2019-05-02T17:37:32.552Z,17.51
2019-05-02T17:41:42.335Z,17.65
2019-05-02T17:45:44.074Z,17.68
2019-05-02T17:49:49.540Z,17.48
2019-05-02T17:53:54.444Z,17.25
2019-05-02T17:57:59.339Z,16.98
2019-05-02T18:02:06.743Z,16.78
2019-05-02T18:06:13.224Z,16.65
2019-05-02T18:10:22.189Z,16.51
2019-05-02T18:14:24.239Z,16.43
2019-05-02T18:18:29.136Z,16.41
2019-05-02T18:22:34.846Z,16.38
2019-05-02T18:26:39.991Z,16.31
2019-05-02T18:30:44.894Z,16.22
2019-05-02T18:34:51.760Z,16.18
2019-05-02T18:39:00.582Z,16.15
2019-05-02T18:43:05.305Z,16.03
2019-05-02T18:47:12.457Z,15.85
2019-05-02T18:51:18.910Z,15.68
2019-05-02T18:55:25.878Z,15.57
2019-05-02T18:59:29.826Z,15.44
2019-05-02T19:03:34.725Z,15.34
2019-05-02T19:07:39.624Z,15.24
2019-05-02T19:11:44.524Z,15.14
2019-05-02T19:15:49.493Z,15.07
2019-05-02T19:19:54.385Z,15.20
2019-05-02T19:23:59.280Z,15.26
2019-05-02T19:28:12.190Z,15.10
2019-05-02T19:32:24.794Z,14.78
2019-05-02T19:36:27.482Z,14.14
2019-05-02T19:40:31.785Z,13.69
2019-05-02T19:44:36.798Z,13.47
2019-05-02T19:48:43.059Z,13.34
2019-05-02T19:52:55.253Z,13.22
2019-05-02T19:56:54.690Z,13.13
2019-05-02T20:00:59.564Z,13.09
2019-05-02T20:05:05.606Z,13.05
2019-05-02T20:09:10.582Z,13.02
2019-05-02T20:13:15.534Z,13.01
2019-05-02T20:17:23.948Z,13.02
2019-05-02T20:21:34.873Z,13.05
2019-05-02T20:25:39.768Z,13.18
2019-05-02T20:29:44.666Z,13.40
2019-05-02T20:33:49.556Z,13.19
2019-05-02T20:37:54.449Z,13.00
2019-05-02T20:41:59.348Z,12.88
2019-05-02T20:46:04.595Z,12.80
2019-05-02T20:50:09.558Z,12.73
2019-05-02T20:54:14.443Z,12.58
2019-05-02T20:58:19.339Z,12.48
2019-05-02T21:02:24.233Z,12.41
2019-05-02T21:06:40.933Z,12.33
2019-05-02T21:10:42.012Z,12.28
2019-05-02T21:14:46.972Z,12.22
2019-05-02T21:18:51.873Z,12.23
2019-05-02T21:22:56.767Z,12.22
2019-05-02T21:27:01.971Z,12.25
2019-05-02T21:31:06.848Z,12.19
2019-05-02T21:35:12.052Z,12.15
2019-05-02T21:39:17.041Z,12.00
2019-05-02T21:43:22.211Z,11.93
2019-05-02T21:47:27.107Z,11.89
2019-05-02T21:51:39.491Z,11.82
2019-05-02T21:55:49.151Z,11.78
2019-05-02T21:59:54.048Z,11.77
2019-05-02T22:03:58.946Z,11.75
2019-05-02T22:08:03.842Z,11.73
2019-05-02T22:12:08.745Z,11.71
2019-05-02T22:16:13.636Z,11.72
2019-05-02T22:20:18.532Z,11.73
2019-05-02T22:24:24.501Z,11.85
2019-05-02T22:28:29.396Z,11.89
2019-05-02T22:32:34.301Z,11.84
2019-05-02T22:36:39.188Z,11.76
2019-05-02T22:40:45.724Z,11.68
2019-05-02T22:44:50.623Z,11.61
2019-05-02T22:48:55.520Z,11.57
2019-05-02T22:53:00.417Z,11.50
2019-05-02T22:57:05.384Z,11.45
2019-05-02T23:01:10.344Z,11.46
2019-05-02T23:05:15.312Z,11.40
2019-05-02T23:09:22.019Z,11.41
2019-05-02T23:13:26.995Z,11.42
2019-05-02T23:17:32.202Z,11.45
2019-05-02T23:21:37.064Z,11.48
2019-05-02T23:25:49.342Z,11.52
2019-05-02T23:29:54.235Z,11.55
2019-05-02T23:33:59.146Z,11.56
2019-05-02T23:38:04.097Z,11.52
2019-05-02T23:42:08.993Z,11.51
2019-05-02T23:46:13.888Z,11.44
2019-05-02T23:50:18.777Z,11.43
2019-05-02T23:54:23.687Z,11.43
2019-05-02T23:58:28.568Z,11.44
